Time;durP1;ratioP1;P1;durP2;ratioP2;P2;SDS_P1;SDS_P2;PMS_P1;PMS_P2;Temp;Humidity;BMP_temperature;BMP_pressure;BME280_temperature;BME280_humidity;BME280_pressure;Samples;Min_cycle;Max_cycle;Signal;HPM_P1;HPM_P2
2023/06/15 00:00:23;;;;;;;0.55;0.50;;;16.70;99.90;;;;;;5031550;28;20124;-47
2023/06/15 00:02:50;;;;;;;0.50;0.40;;;16.70;99.90;;;;;;5031389;28;20041;-48
2023/06/15 00:05:16;;;;;;;0.20;0.20;;;16.60;99.90;;;;;;5031593;28;20083;-52
2023/06/15 00:07:42;;;;;;;0.28;0.28;;;16.60;99.90;;;;;;5031420;28;20040;-45
2023/06/15 00:10:09;;;;;;;0.25;0.20;;;16.60;99.90;;;;;;5031384;28;20017;-51
2023/06/15 00:12:35;;;;;;;0.30;0.30;;;16.50;99.90;;;;;;5030989;28;20064;-51
2023/06/15 00:15:01;;;;;;;0.22;0.22;;;16.50;99.90;;;;;;5031084;28;20052;-51
2023/06/15 00:17:26;;;;;;;0.45;0.45;;;16.50;99.90;;;;;;5031367;28;20455;-45
2023/06/15 00:19:53;;;;;;;0.30;0.30;;;16.40;99.90;;;;;;5030978;28;20021;-48
2023/06/15 00:22:19;;;;;;;0.38;0.38;;;16.40;99.90;;;;;;5031055;28;20049;-48
2023/06/15 00:24:45;;;;;;;0.40;0.40;;;16.40;99.90;;;;;;5031064;28;20108;-45
2023/06/15 00:27:11;;;;;;;0.90;0.35;;;16.30;99.90;;;;;;5031043;28;20069;-49
2023/06/15 00:29:37;;;;;;;0.50;0.20;;;16.30;99.90;;;;;;5031135;28;20083;-54
2023/06/15 00:32:06;;;;;;;0.50;0.30;;;16.20;99.90;;;;;;5030929;28;20457;-51
2023/06/15 00:34:32;;;;;;;0.28;0.20;;;16.20;99.90;;;;;;5013384;28;20034;-49
2023/06/15 00:36:57;;;;;;;0.15;0.15;;;16.10;99.90;;;;;;5030926;28;20120;-54
2023/06/15 00:39:23;;;;;;;0.25;0.25;;;16.00;99.90;;;;;;5030986;28;20086;-45
2023/06/15 00:41:49;;;;;;;0.30;0.30;;;16.00;99.90;;;;;;5030685;28;20381;-49
2023/06/15 00:44:15;;;;;;;0.40;0.40;;;15.90;99.90;;;;;;5030469;28;20029;-45
2023/06/15 00:46:40;;;;;;;0.22;0.22;;;15.90;99.90;;;;;;5030625;28;20041;-49
2023/06/15 00:49:07;;;;;;;0.20;0.20;;;15.80;99.90;;;;;;5030923;28;20104;-45
2023/06/15 00:51:35;;;;;;;0.55;0.43;;;15.80;99.90;;;;;;5030667;28;20041;-45
2023/06/15 00:54:02;;;;;;;0.30;0.30;;;15.70;99.90;;;;;;5030622;28;20411;-46
2023/06/15 00:56:29;;;;;;;0.32;0.30;;;15.70;99.90;;;;;;5030442;28;20049;-45
2023/06/15 00:58:56;;;;;;;0.20;0.20;;;15.60;99.90;;;;;;5030499;28;20672;-46
2023/06/15 01:01:22;;;;;;;0.30;0.30;;;15.50;99.90;;;;;;5030481;28;20072;-51
2023/06/15 01:03:47;;;;;;;0.35;0.30;;;15.50;99.90;;;;;;5030139;28;20053;-45
2023/06/15 01:06:15;;;;;;;0.30;0.30;;;15.50;99.90;;;;;;5030483;28;20021;-48
2023/06/15 01:08:43;;;;;;;0.40;0.30;;;15.40;99.90;;;;;;5030589;28;20112;-48
2023/06/15 01:11:09;;;;;;;0.15;0.15;;;15.50;99.90;;;;;;5028560;28;20025;-51
2023/06/15 01:13:36;;;;;;;0.20;0.20;;;15.50;99.90;;;;;;5018518;28;20120;-44
2023/06/15 01:16:07;;;;;;;0.40;0.30;;;15.50;99.90;;;;;;5030122;28;20021;-47
2023/06/15 01:18:36;;;;;;;0.20;0.20;;;15.50;99.90;;;;;;5017511;28;20049;-45
2023/06/15 01:21:06;;;;;;;0.15;0.15;;;15.40;99.90;;;;;;5030126;28;20049;-47
2023/06/15 01:23:49;;;;;;;0.28;0.28;;;15.30;99.90;;;;;;5030235;28;20036;-45
2023/06/15 01:26:17;;;;;;;0.30;0.30;;;15.20;99.90;;;;;;5029817;28;20073;-45
2023/06/15 01:28:49;;;;;;;0.20;0.20;;;15.20;99.90;;;;;;5030549;28;20028;-47
2023/06/15 01:31:15;;;;;;;0.30;0.30;;;15.20;99.90;;;;;;5030092;28;20021;-48
2023/06/15 01:33:45;;;;;;;0.45;0.20;;;15.20;99.90;;;;;;5030708;28;20034;-46
2023/06/15 01:36:10;;;;;;;0.30;0.30;;;15.20;99.90;;;;;;5029905;28;20033;-46
2023/06/15 01:38:36;;;;;;;0.57;0.47;;;15.20;99.90;;;;;;5029993;28;20025;-46
2023/06/15 01:41:03;;;;;;;0.40;0.30;;;15.20;99.90;;;;;;5030724;28;20040;-45
2023/06/15 01:43:31;;;;;;;0.55;0.38;;;15.20;99.90;;;;;;5029668;28;20033;-53
2023/06/15 01:45:58;;;;;;;0.38;0.38;;;15.20;99.90;;;;;;5030367;28;20029;-52
2023/06/15 01:48:25;;;;;;;0.20;0.20;;;15.20;99.90;;;;;;5030113;28;20468;-48
2023/06/15 01:50:52;;;;;;;0.22;0.22;;;15.20;99.90;;;;;;5030093;28;20021;-52
2023/06/15 01:53:18;;;;;;;0.40;0.40;;;15.10;99.90;;;;;;5030342;28;20032;-53
2023/06/15 01:55:43;;;;;;;0.20;0.20;;;15.10;99.90;;;;;;5029845;28;20029;-45
2023/06/15 01:58:15;;;;;;;0.55;0.30;;;15.10;99.90;;;;;;5030019;28;20025;-45
2023/06/15 02:00:44;;;;;;;0.35;0.35;;;15.10;99.90;;;;;;5030000;28;20073;-53
2023/06/15 02:03:11;;;;;;;0.50;0.50;;;15.00;99.90;;;;;;5029905;28;20017;-48
2023/06/15 02:05:39;;;;;;;0.20;0.20;;;15.00;99.90;;;;;;5030259;28;20038;-49
2023/06/15 02:08:08;;;;;;;0.25;0.25;;;15.00;99.90;;;;;;5030003;28;20024;-48
2023/06/15 02:10:34;;;;;;;;;;;14.90;99.90;;;;;;5030419;28;20042;-45
2023/06/15 02:13:00;;;;;;;0.20;0.20;;;14.90;99.90;;;;;;5029649;28;20596;-50
2023/06/15 02:15:26;;;;;;;0.75;0.30;;;14.90;99.90;;;;;;5033485;28;20042;-56
2023/06/15 02:18:02;;;;;;;0.32;0.20;;;14.80;99.90;;;;;;5032972;28;20396;-48
2023/06/15 02:20:28;;;;;;;0.20;0.20;;;14.80;99.90;;;;;;5033452;28;20360;-45
2023/06/15 02:22:57;;;;;;;0.20;0.20;;;14.80;99.90;;;;;;5032680;28;20471;-47
2023/06/15 02:25:24;;;;;;;0.70;0.70;;;14.80;99.90;;;;;;5033274;28;20461;-48
2023/06/15 02:27:50;;;;;;;0.30;0.30;;;14.80;99.90;;;;;;5033338;28;20053;-51
2023/06/15 02:30:16;;;;;;;0.93;0.30;;;14.80;99.90;;;;;;5032983;28;20396;-45
2023/06/15 02:32:42;;;;;;;0.40;0.40;;;14.70;99.90;;;;;;5033191;28;20120;-47
2023/06/15 02:35:11;;;;;;;0.20;0.20;;;14.70;99.90;;;;;;5033046;28;20447;-47
2023/06/15 02:37:38;;;;;;;0.50;0.40;;;14.60;99.90;;;;;;5033332;28;20029;-46
2023/06/15 02:40:05;;;;;;;0.30;0.30;;;14.60;99.90;;;;;;5033002;28;20029;-47
2023/06/15 02:42:31;;;;;;;0.20;0.20;;;14.60;99.90;;;;;;5032711;28;20105;-46
2023/06/15 02:44:56;;;;;;;0.30;0.30;;;14.60;99.90;;;;;;5032864;28;20470;-48
2023/06/15 02:47:23;;;;;;;0.20;0.20;;;14.60;99.90;;;;;;5032693;28;20041;-47
2023/06/15 02:49:48;;;;;;;0.63;0.55;;;14.50;99.90;;;;;;5032985;28;20049;-47
2023/06/15 02:52:14;;;;;;;0.28;0.28;;;14.40;99.90;;;;;;5032607;28;20381;-47
2023/06/15 02:54:40;;;;;;;0.47;0.38;;;14.40;99.90;;;;;;5032711;28;20409;-46
2023/06/15 02:57:06;;;;;;;0.45;0.43;;;14.40;99.90;;;;;;5031125;28;20045;-45
2023/06/15 02:59:33;;;;;;;0.20;0.20;;;14.40;99.90;;;;;;5032224;28;20029;-52
2023/06/15 03:02:00;;;;;;;0.43;0.30;;;14.40;99.90;;;;;;5032658;28;20038;-45
2023/06/15 03:04:27;;;;;;;0.75;0.70;;;14.30;99.90;;;;;;5032152;28;20084;-45
2023/06/15 03:06:56;;;;;;;0.63;0.60;;;14.40;99.90;;;;;;5032384;28;20542;-50
2023/06/15 03:09:22;;;;;;;0.68;0.68;;;14.40;99.90;;;;;;5018824;28;20033;-51
2023/06/15 03:11:47;;;;;;;0.30;0.30;;;14.30;99.90;;;;;;5032412;28;20436;-47
2023/06/15 03:14:14;;;;;;;0.35;0.32;;;14.20;99.90;;;;;;5032056;28;20091;-54
2023/06/15 03:16:41;;;;;;;0.73;0.50;;;14.20;99.90;;;;;;5032481;28;20025;-53
2023/06/15 03:19:07;;;;;;;0.40;0.40;;;14.00;99.90;;;;;;5032309;28;20021;-50
2023/06/15 03:21:32;;;;;;;0.40;0.40;;;13.80;99.90;;;;;;5032048;28;20531;-50
2023/06/15 03:23:59;;;;;;;0.40;0.40;;;13.70;99.90;;;;;;5032114;28;20021;-50
2023/06/15 03:26:26;;;;;;;0.30;0.30;;;13.60;99.90;;;;;;5017725;28;20086;-53
2023/06/15 03:28:53;;;;;;;0.22;0.22;;;13.50;99.90;;;;;;5032253;28;20038;-52
2023/06/15 03:31:19;;;;;;;0.55;0.45;;;13.50;99.90;;;;;;5031916;28;20025;-50
2023/06/15 03:33:46;;;;;;;0.30;0.30;;;13.50;99.90;;;;;;5031937;28;20021;-44
2023/06/15 03:36:14;;;;;;;0.28;0.20;;;13.60;99.90;;;;;;5031540;28;20018;-45
2023/06/15 03:38:42;;;;;;;0.45;0.45;;;13.70;99.90;;;;;;5032028;28;20116;-45
2023/06/15 03:41:08;;;;;;;0.20;0.20;;;13.80;99.90;;;;;;5031549;28;20057;-51
2023/06/15 03:43:37;;;;;;;0.60;0.60;;;13.80;99.90;;;;;;5031437;28;20127;-48
2023/06/15 03:46:04;;;;;;;0.35;0.35;;;13.80;99.90;;;;;;5031888;28;20108;-51
2023/06/15 03:48:30;;;;;;;0.30;0.30;;;13.90;99.90;;;;;;5031602;28;20036;-46
2023/06/15 03:50:56;;;;;;;0.45;0.45;;;14.00;99.90;;;;;;5031758;28;20033;-45
2023/06/15 03:53:23;;;;;;;0.32;0.32;;;14.00;99.90;;;;;;5031381;28;20021;-50
2023/06/15 03:55:49;;;;;;;0.30;0.30;;;14.00;99.90;;;;;;5031372;28;20017;-48
2023/06/15 03:58:16;;;;;;;0.32;0.30;;;14.10;99.90;;;;;;5031652;28;20033;-50
2023/06/15 04:00:43;;;;;;;0.30;0.30;;;14.10;99.90;;;;;;5031507;28;20068;-45
2023/06/15 04:03:09;;;;;;;0.30;0.28;;;14.10;99.90;;;;;;5031398;28;20049;-47
2023/06/15 04:05:34;;;;;;;0.30;0.22;;;14.20;99.90;;;;;;5031094;28;20439;-46
2023/06/15 04:08:01;;;;;;;0.47;0.40;;;14.20;99.90;;;;;;5031391;28;20064;-45
2023/06/15 04:10:27;;;;;;;0.40;0.40;;;14.20;99.90;;;;;;5031003;28;20034;-47
2023/06/15 04:12:52;;;;;;;0.40;0.40;;;14.20;99.90;;;;;;5031076;28;20422;-56
2023/06/15 04:15:18;;;;;;;0.43;0.30;;;14.20;99.90;;;;;;5013305;28;20044;-53
2023/06/15 04:17:44;;;;;;;0.75;0.57;;;14.20;99.90;;;;;;5013504;28;20025;-47
2023/06/15 04:20:10;;;;;;;0.22;0.22;;;14.30;99.90;;;;;;5031262;28;20066;-48
2023/06/15 04:22:36;;;;;;;0.65;0.65;;;14.30;99.90;;;;;;5030803;28;20034;-48
2023/06/15 04:25:02;;;;;;;0.35;0.35;;;14.30;99.90;;;;;;5031014;28;20034;-49
2023/06/15 04:27:27;;;;;;;0.40;0.40;;;14.30;99.90;;;;;;5012964;28;20022;-53
2023/06/15 04:29:54;;;;;;;0.20;0.20;;;14.30;99.90;;;;;;5031043;28;20029;-53
2023/06/15 04:32:20;;;;;;;0.40;0.40;;;14.30;99.90;;;;;;5030719;28;20064;-46
2023/06/15 04:34:45;;;;;;;0.22;0.20;;;14.40;99.90;;;;;;5030973;28;20057;-47
2023/06/15 04:37:14;;;;;;;0.60;0.47;;;14.40;99.90;;;;;;5029981;28;20109;-49
2023/06/15 04:39:40;;;;;;;0.30;0.30;;;14.50;99.90;;;;;;5030818;28;20026;-44
2023/06/15 04:42:08;;;;;;;0.30;0.30;;;14.50;99.90;;;;;;5030489;28;20243;-45
2023/06/15 04:44:34;;;;;;;0.50;0.40;;;14.60;99.90;;;;;;5028949;28;20060;-44
2023/06/15 04:47:00;;;;;;;0.30;0.30;;;14.70;99.90;;;;;;5030681;28;20473;-47
2023/06/15 04:49:26;;;;;;;0.20;0.20;;;14.80;99.90;;;;;;5030617;28;20111;-49
2023/06/15 04:51:51;;;;;;;0.50;0.40;;;14.90;99.90;;;;;;5030598;28;20040;-45
2023/06/15 04:54:17;;;;;;;0.52;0.30;;;15.00;99.90;;;;;;5030746;28;20029;-45
2023/06/15 04:56:43;;;;;;;0.30;0.30;;;15.30;99.90;;;;;;5030340;28;20188;-44
2023/06/15 04:59:08;;;;;;;0.30;0.30;;;15.70;99.90;;;;;;5030662;28;20034;-50
2023/06/15 05:01:34;;;;;;;0.55;0.30;;;16.10;99.90;;;;;;5030287;28;20043;-48
2023/06/15 05:04:00;;;;;;;0.35;0.35;;;16.60;99.90;;;;;;5030521;28;20060;-50
2023/06/15 05:06:26;;;;;;;0.45;0.40;;;17.00;99.90;;;;;;5030669;28;20034;-47
2023/06/15 05:08:51;;;;;;;0.50;0.50;;;17.30;99.90;;;;;;5030452;28;20032;-45
2023/06/15 05:11:17;;;;;;;1.45;0.95;;;17.60;99.90;;;;;;5030607;28;20029;-53
2023/06/15 05:13:43;;;;;;;0.30;0.30;;;17.80;99.90;;;;;;5029956;28;20036;-45
2023/06/15 05:16:08;;;;;;;0.73;0.35;;;17.90;99.90;;;;;;5030629;28;20503;-44
2023/06/15 05:18:34;;;;;;;0.30;0.30;;;17.90;99.90;;;;;;5030548;28;20101;-45
2023/06/15 05:20:59;;;;;;;0.68;0.40;;;17.90;99.90;;;;;;5030240;28;20080;-48
2023/06/15 05:23:26;;;;;;;0.50;0.50;;;17.90;99.90;;;;;;5030456;28;20385;-45
2023/06/15 05:25:52;;;;;;;0.38;0.38;;;17.80;99.90;;;;;;5030529;28;20100;-47
2023/06/15 05:28:18;;;;;;;0.30;0.30;;;17.70;99.90;;;;;;5030710;28;20552;-52
2023/06/15 05:30:45;;;;;;;3.75;2.15;;;17.70;99.90;;;;;;5030351;28;20033;-45
2023/06/15 05:33:10;;;;;;;18.25;3.20;;;17.70;99.90;;;;;;5030470;28;20033;-48
2023/06/15 05:35:36;;;;;;;2.65;1.10;;;17.70;99.90;;;;;;5030319;28;20091;-46
2023/06/15 05:38:02;;;;;;;0.55;0.50;;;17.80;99.90;;;;;;5030214;28;20083;-43
2023/06/15 05:40:27;;;;;;;2.00;0.47;;;17.80;99.90;;;;;;5030505;28;20018;-48
2023/06/15 05:42:54;;;;;;;0.77;0.50;;;18.00;99.90;;;;;;5030042;28;20032;-48
2023/06/15 05:45:20;;;;;;;3.55;0.82;;;18.20;99.90;;;;;;5030340;28;20018;-50
2023/06/15 05:47:45;;;;;;;1.20;0.82;;;18.50;99.90;;;;;;5030229;28;20389;-48
2023/06/15 05:50:11;;;;;;;1.65;0.93;;;18.80;99.90;;;;;;5033805;28;20661;-47
2023/06/15 05:52:37;;;;;;;1.70;0.77;;;19.30;99.90;;;;;;5034179;28;20041;-45
2023/06/15 05:55:03;;;;;;;1.73;0.73;;;19.80;99.90;;;;;;5034069;28;20017;-48
2023/06/15 05:57:28;;;;;;;2.25;0.73;;;20.50;99.90;;;;;;5033740;28;20079;-48
2023/06/15 05:59:54;;;;;;;0.98;0.77;;;21.20;99.90;;;;;;5034010;28;20033;-46
2023/06/15 06:02:21;;;;;;;0.98;0.88;;;21.80;99.90;;;;;;5033828;28;20060;-48
2023/06/15 06:04:46;;;;;;;1.15;0.80;;;22.40;99.90;;;;;;5033728;28;20025;-44
2023/06/15 06:07:12;;;;;;;1.77;1.00;;;23.00;99.90;;;;;;5033649;28;20035;-50
2023/06/15 06:09:38;;;;;;;1.55;1.05;;;23.60;99.90;;;;;;5033820;28;20017;-51
2023/06/15 06:12:04;;;;;;;1.30;0.75;;;24.20;99.90;;;;;;5033732;28;20136;-48
2023/06/15 06:14:29;;;;;;;2.50;1.02;;;24.80;99.90;;;;;;5033294;28;20021;-48
2023/06/15 06:16:55;;;;;;;1.75;0.90;;;25.20;99.90;;;;;;5033470;28;20037;-47
2023/06/15 06:19:22;;;;;;;0.80;0.60;;;25.50;99.90;;;;;;5033669;28;20026;-47
2023/06/15 06:21:48;;;;;;;1.05;0.60;;;25.80;99.90;;;;;;5033301;28;20041;-44
2023/06/15 06:24:14;;;;;;;0.82;0.63;;;26.20;99.90;;;;;;5033438;28;20017;-46
2023/06/15 06:26:40;;;;;;;1.33;0.70;;;26.40;99.90;;;;;;5033322;28;20030;-46
2023/06/15 06:29:05;;;;;;;3.15;0.90;;;26.60;99.90;;;;;;5033261;28;20105;-47
2023/06/15 06:31:31;;;;;;;1.05;0.68;;;26.90;99.70;;;;;;5033422;28;20026;-50
2023/06/15 06:33:57;;;;;;;2.13;1.00;;;27.20;99.90;;;;;;5033028;28;20045;-50
2023/06/15 06:36:22;;;;;;;1.05;0.55;;;27.60;98.50;;;;;;5033556;28;20041;-46
2023/06/15 06:38:48;;;;;;;2.03;0.60;;;28.00;97.30;;;;;;5033165;28;20092;-52
2023/06/15 06:41:14;;;;;;;0.98;0.57;;;28.20;96.80;;;;;;5032939;28;20025;-44
2023/06/15 06:43:40;;;;;;;0.75;0.60;;;28.30;94.70;;;;;;5032665;28;20028;-44
2023/06/15 06:46:05;;;;;;;1.55;0.80;;;28.30;94.50;;;;;;5032980;28;20029;-51
2023/06/15 06:48:31;;;;;;;2.53;0.93;;;28.40;93.90;;;;;;5032838;28;20025;-45
2023/06/15 06:50:57;;;;;;;0.65;0.60;;;28.50;92.70;;;;;;5032710;28;20473;-47
2023/06/15 06:53:22;;;;;;;0.85;0.60;;;28.50;92.90;;;;;;5032847;28;20094;-46
2023/06/15 06:55:48;;;;;;;1.52;0.55;;;28.50;93.70;;;;;;5032688;28;20491;-48
2023/06/15 06:58:14;;;;;;;1.33;0.80;;;28.50;91.30;;;;;;5032603;28;20034;-47
2023/06/15 07:00:40;;;;;;;0.75;0.52;;;28.80;91.40;;;;;;5031425;28;20113;-45
2023/06/15 07:03:05;;;;;;;1.60;0.80;;;28.90;91.30;;;;;;5032069;28;20106;-47
2023/06/15 07:05:31;;;;;;;1.33;0.73;;;29.00;89.60;;;;;;5032384;28;20056;-47
2023/06/15 07:07:57;;;;;;;0.77;0.57;;;28.90;90.00;;;;;;5032383;28;20814;-46
2023/06/15 07:10:22;;;;;;;1.13;0.75;;;29.00;89.80;;;;;;5032488;28;20079;-46
2023/06/15 07:12:48;;;;;;;0.95;0.70;;;29.30;88.30;;;;;;5032423;28;20028;-46
2023/06/15 07:15:14;;;;;;;1.10;0.68;;;29.50;88.20;;;;;;5032593;28;20080;-44
2023/06/15 07:17:40;;;;;;;2.25;0.68;;;29.60;86.90;;;;;;5032539;28;20029;-48
2023/06/15 07:20:06;;;;;;;1.67;0.80;;;29.60;87.60;;;;;;5032687;28;20025;-45
2023/06/15 07:22:33;;;;;;;0.85;0.57;;;29.80;83.70;;;;;;5032458;28;20046;-50
2023/06/15 07:24:59;;;;;;;1.48;0.73;;;30.20;87.20;;;;;;5032460;28;20022;-50
2023/06/15 07:27:25;;;;;;;0.98;0.80;;;30.40;85.70;;;;;;5032278;28;20498;-48
2023/06/15 07:29:50;;;;;;;1.08;0.70;;;30.60;81.80;;;;;;5032310;28;20030;-47
2023/06/15 07:32:16;;;;;;;1.10;0.70;;;30.70;83.90;;;;;;5032093;28;20091;-48
2023/06/15 07:34:41;;;;;;;1.38;0.80;;;30.90;83.30;;;;;;5032264;28;20025;-44
2023/06/15 07:37:07;;;;;;;1.48;0.82;;;31.20;80.00;;;;;;5032401;28;20112;-51
2023/06/15 07:39:33;;;;;;;1.02;0.80;;;31.50;79.00;;;;;;5032128;28;20100;-45
2023/06/15 07:42:00;;;;;;;1.10;0.68;;;31.80;78.80;;;;;;5031677;28;20037;-47
2023/06/15 07:44:26;;;;;;;1.10;0.68;;;32.00;76.90;;;;;;5031824;28;20117;-50
2023/06/15 07:46:51;;;;;;;1.15;0.77;;;32.10;78.30;;;;;;5031527;28;20120;-46
2023/06/15 07:49:17;;;;;;;1.65;0.70;;;32.50;76.50;;;;;;5031755;28;20104;-45
2023/06/15 07:51:44;;;;;;;1.27;0.60;;;32.80;73.70;;;;;;5032090;28;20033;-44
2023/06/15 07:54:09;;;;;;;1.42;0.85;;;33.10;71.90;;;;;;5032035;28;20033;-52
2023/06/15 07:56:35;;;;;;;1.13;0.60;;;33.10;70.40;;;;;;5031585;28;20636;-48
2023/06/15 07:59:00;;;;;;;0.70;0.63;;;33.20;71.70;;;;;;5013441;28;20465;-48
2023/06/15 08:01:26;;;;;;;0.60;0.50;;;33.40;70.20;;;;;;5030241;28;20049;-50
2023/06/15 08:03:52;;;;;;;2.80;0.63;;;33.70;68.50;;;;;;5031672;28;20032;-47
2023/06/15 08:06:17;;;;;;;0.70;0.52;;;34.00;69.90;;;;;;5031709;28;20124;-45
2023/06/15 08:08:44;;;;;;;1.05;0.60;;;34.00;65.40;;;;;;5031634;28;20036;-53
2023/06/15 08:11:10;;;;;;;0.90;0.50;;;34.30;66.90;;;;;;5031524;28;20030;-52
2023/06/15 08:13:37;;;;;;;1.13;0.60;;;33.90;64.10;;;;;;5031413;28;20032;-45
2023/06/15 08:16:05;;;;;;;0.90;0.63;;;33.40;64.60;;;;;;5031631;28;20017;-44
2023/06/15 08:18:31;;;;;;;1.25;0.70;;;33.10;66.50;;;;;;5031400;28;20029;-46
2023/06/15 08:20:57;;;;;;;0.88;0.40;;;32.90;65.90;;;;;;5031193;28;20033;-47
2023/06/15 08:23:23;;;;;;;1.83;0.90;;;32.80;67.20;;;;;;5031491;28;20507;-44
2023/06/15 08:25:52;;;;;;;0.77;0.50;;;32.70;68.50;;;;;;5031172;28;20113;-50
2023/06/15 08:28:17;;;;;;;0.70;0.60;;;32.70;69.90;;;;;;5030972;28;20032;-44
2023/06/15 08:30:43;;;;;;;1.65;0.70;;;32.90;68.60;;;;;;5031162;28;20033;-44
2023/06/15 08:33:09;;;;;;;0.82;0.55;;;33.10;69.60;;;;;;5031320;28;20053;-47
2023/06/15 08:35:35;;;;;;;1.33;0.60;;;33.40;69.10;;;;;;5031200;28;20029;-45
2023/06/15 08:38:00;;;;;;;1.15;0.70;;;33.40;64.90;;;;;;5030524;28;20459;-45
2023/06/15 08:40:26;;;;;;;1.20;0.80;;;33.60;65.50;;;;;;5023070;28;20569;-56
2023/06/15 08:42:53;;;;;;;2.72;1.00;;;33.60;66.90;;;;;;5021215;28;20042;-49
2023/06/15 08:45:18;;;;;;;0.85;0.70;;;33.80;67.00;;;;;;5014909;28;20113;-55
2023/06/15 08:47:45;;;;;;;1.15;0.73;;;33.90;65.40;;;;;;5016857;28;20104;-50
2023/06/15 08:50:11;;;;;;;0.90;0.70;;;34.00;64.10;;;;;;5016339;28;20029;-44
2023/06/15 08:52:38;;;;;;;0.98;0.80;;;34.00;65.20;;;;;;5014853;28;20034;-46
2023/06/15 08:55:04;;;;;;;3.00;0.73;;;34.20;64.30;;;;;;5018136;28;20029;-46
2023/06/15 08:57:32;;;;;;;1.63;1.08;;;34.40;64.10;;;;;;5014735;28;20046;-49
2023/06/15 08:59:58;;;;;;;1.02;0.60;;;34.40;63.20;;;;;;5026338;28;20026;-50
2023/06/15 09:02:25;;;;;;;1.05;0.68;;;34.20;61.70;;;;;;5029826;28;20049;-53
2023/06/15 09:04:52;;;;;;;0.85;0.65;;;34.40;63.90;;;;;;5030641;28;20504;-46
2023/06/15 09:07:21;;;;;;;1.35;0.70;;;34.50;60.00;;;;;;5030338;28;20104;-49
2023/06/15 09:10:18;;;;;;;1.55;0.75;;;34.60;61.50;;;;;;5030848;28;20102;-43
2023/06/15 09:12:46;;;;;;;2.22;0.90;;;34.50;61.50;;;;;;5018438;28;20109;-49
2023/06/15 09:15:18;;;;;;;1.52;0.77;;;34.60;60.20;;;;;;5030494;28;20018;-55
2023/06/15 09:17:44;;;;;;;1.48;0.80;;;34.80;64.10;;;;;;5030373;28;20025;-45
2023/06/15 09:20:10;;;;;;;0.80;0.60;;;34.90;62.50;;;;;;5018706;28;20034;-47
2023/06/15 09:22:41;;;;;;;0.85;0.70;;;34.90;58.70;;;;;;5012520;28;20034;-48
2023/06/15 09:25:16;;;;;;;0.82;0.68;;;34.50;57.30;;;;;;5033267;28;20660;-48
2023/06/15 09:27:56;;;;;;;0.50;0.50;;;34.50;60.20;;;;;;5008179;28;20024;-50
2023/06/15 09:30:30;;;;;;;1.08;0.70;;;34.70;62.20;;;;;;5019771;28;20029;-50
2023/06/15 09:32:55;;;;;;;1.20;0.63;;;34.80;61.50;;;;;;5028528;28;20052;-49
2023/06/15 09:35:21;;;;;;;1.17;0.73;;;34.90;60.30;;;;;;5019526;28;20422;-52
2023/06/15 09:37:54;;;;;;;1.20;0.70;;;34.50;56.90;;;;;;5025804;28;20029;-48
2023/06/15 09:40:20;;;;;;;2.38;0.70;;;34.50;60.00;;;;;;5030626;28;20087;-51
2023/06/15 09:42:50;;;;;;;1.05;0.60;;;34.80;58.10;;;;;;5026827;28;20037;-48
2023/06/15 09:45:16;;;;;;;0.90;0.75;;;34.90;57.80;;;;;;5025436;28;20104;-56
2023/06/15 09:47:42;;;;;;;1.55;0.80;;;35.00;56.90;;;;;;5023174;28;20640;-52
2023/06/15 09:50:09;;;;;;;2.72;0.88;;;35.20;58.20;;;;;;5026686;28;20380;-51
2023/06/15 09:52:41;;;;;;;1.38;0.77;;;35.40;56.70;;;;;;5027630;28;20472;-47
2023/06/15 09:55:08;;;;;;;0.90;0.63;;;35.40;57.90;;;;;;5028248;28;20052;-50
2023/06/15 09:57:34;;;;;;;0.82;0.60;;;35.50;57.40;;;;;;5018637;28;20409;-45
2023/06/15 10:00:02;;;;;;;1.08;0.60;;;35.70;55.20;;;;;;5023108;28;20022;-50
2023/06/15 10:02:28;;;;;;;0.63;0.60;;;35.30;53.70;;;;;;5018598;28;20100;-54
2023/06/15 10:04:54;;;;;;;1.30;0.70;;;35.50;57.30;;;;;;5031268;28;20029;-47
2023/06/15 10:07:21;;;;;;;1.05;0.65;;;35.50;53.70;;;;;;5033691;28;20052;-50
2023/06/15 10:09:53;;;;;;;2.50;0.80;;;35.70;55.40;;;;;;5033986;28;20100;-52
2023/06/15 10:12:28;;;;;;;1.00;0.70;;;35.60;52.70;;;;;;5033188;28;20128;-50
2023/06/15 10:15:12;;;;;;;0.70;0.60;;;34.90;54.80;;;;;;5033577;28;20040;-49
2023/06/15 10:17:40;;;;;;;0.90;0.70;;;35.10;54.10;;;;;;5020369;28;20057;-49
2023/06/15 10:20:09;;;;;;;;;;;34.50;50.70;;;;;;5034180;28;20025;-49
2023/06/15 10:22:45;;;;;;;0.98;0.70;;;34.60;53.60;;;;;;5033562;28;19971;-49
2023/06/15 10:25:12;;;;;;;1.58;0.77;;;34.70;54.70;;;;;;5033708;28;20025;-52
2023/06/15 10:27:38;;;;;;;0.98;0.70;;;34.80;53.60;;;;;;5033166;28;20036;-55
2023/06/15 10:30:08;;;;;;;0.90;0.60;;;35.00;53.60;;;;;;5021507;28;20026;-45
2023/06/15 10:32:41;;;;;;;0.70;0.57;;;35.20;54.90;;;;;;5022937;28;20033;-49
2023/06/15 10:35:14;;;;;;;0.88;0.50;;;34.90;53.10;;;;;;5029011;28;20025;-52
2023/06/15 10:37:56;;;;;;;0.80;0.65;;;34.90;53.00;;;;;;5027455;28;20031;-49
2023/06/15 10:40:31;;;;;;;0.60;0.60;;;35.10;54.50;;;;;;5032452;28;20030;-48
2023/06/15 10:42:59;;;;;;;0.85;0.68;;;35.00;50.90;;;;;;5026955;28;20507;-47
2023/06/15 10:45:31;;;;;;;1.38;0.80;;;34.80;52.00;;;;;;5019390;28;20036;-44
2023/06/15 10:47:58;;;;;;;1.48;0.80;;;34.40;54.40;;;;;;5022287;28;20021;-45
2023/06/15 10:50:26;;;;;;;1.20;0.70;;;34.00;51.80;;;;;;5028725;28;20068;-44
2023/06/15 10:52:52;;;;;;;1.00;0.80;;;33.60;50.70;;;;;;5021144;28;20026;-49
2023/06/15 10:55:23;;;;;;;1.25;0.70;;;33.40;52.60;;;;;;5030312;28;20034;-51
2023/06/15 10:58:09;;;;;;;1.30;0.80;;;32.90;52.80;;;;;;5019310;28;20046;-47
2023/06/15 11:00:41;;;;;;;1.08;0.70;;;33.10;54.80;;;;;;5028580;28;20126;-48
2023/06/15 11:03:23;;;;;;;0.70;0.60;;;32.90;52.20;;;;;;5029080;28;20457;-50
2023/06/15 11:06:05;;;;;;;1.55;0.80;;;32.90;53.30;;;;;;5019446;28;20060;-43
2023/06/15 11:08:32;;;;;;;0.88;0.60;;;32.40;51.60;;;;;;5032650;28;20112;-46
2023/06/15 11:10:59;;;;;;;1.27;0.90;;;31.80;51.00;;;;;;5032804;28;20025;-45
2023/06/15 11:13:25;;;;;;;1.15;0.70;;;31.90;49.90;;;;;;5032027;28;20086;-46
2023/06/15 11:16:06;;;;;;;1.33;0.80;;;31.80;51.50;;;;;;5027023;28;20025;-47
2023/06/15 11:18:32;;;;;;;1.15;0.68;;;31.80;50.20;;;;;;5024159;28;20112;-44
2023/06/15 11:20:59;;;;;;;1.08;0.60;;;31.80;50.60;;;;;;5026151;28;20108;-48
2023/06/15 11:23:33;;;;;;;0.88;0.60;;;31.40;52.00;;;;;;5024125;28;20493;-45
2023/06/15 11:26:01;;;;;;;1.00;0.57;;;31.70;51.00;;;;;;5026039;28;20013;-43
2023/06/15 11:28:31;;;;;;;0.95;0.70;;;32.00;53.40;;;;;;5024577;28;20481;-45
2023/06/15 11:31:01;;;;;;;1.80;0.70;;;32.50;50.70;;;;;;5023852;28;20025;-43
2023/06/15 11:33:32;;;;;;;0.93;0.70;;;32.50;51.00;;;;;;5025139;28;20104;-52
2023/06/15 11:36:08;;;;;;;0.85;0.55;;;32.60;50.40;;;;;;5025869;28;20025;-52
2023/06/15 11:38:34;;;;;;;1.50;0.70;;;32.50;51.30;;;;;;5025701;28;20025;-54
2023/06/15 11:41:08;;;;;;;1.15;0.90;;;33.00;52.00;;;;;;5025852;28;20038;-54
2023/06/15 11:43:40;;;;;;;1.02;0.70;;;33.20;49.10;;;;;;5028230;28;20155;-44
2023/06/15 11:46:11;;;;;;;1.20;0.75;;;32.90;50.90;;;;;;5025329;28;20026;-44
2023/06/15 11:48:37;;;;;;;1.40;0.80;;;33.30;50.60;;;;;;5025889;28;20060;-47
2023/06/15 11:51:08;;;;;;;1.17;0.77;;;33.10;47.10;;;;;;5025539;28;20041;-46
2023/06/15 11:53:34;;;;;;;0.98;0.63;;;33.10;52.20;;;;;;5028096;28;20046;-46
2023/06/15 11:56:00;;;;;;;1.75;0.75;;;33.50;52.90;;;;;;5020527;28;20542;-45
2023/06/15 11:58:26;;;;;;;0.90;0.70;;;33.70;51.00;;;;;;5018140;28;20484;-44
2023/06/15 12:00:52;;;;;;;1.77;1.00;;;34.00;51.20;;;;;;5024947;28;20037;-44
2023/06/15 12:03:18;;;;;;;0.75;0.60;;;33.30;46.80;;;;;;5021128;28;20040;-50
2023/06/15 12:05:54;;;;;;;1.13;0.80;;;33.10;48.30;;;;;;5031917;28;20079;-45
2023/06/15 12:08:20;;;;;;;1.17;0.77;;;32.70;51.50;;;;;;5031921;28;20045;-49
2023/06/15 12:10:46;;;;;;;1.35;0.80;;;32.70;49.70;;;;;;5031480;28;20354;-53
2023/06/15 12:13:12;;;;;;;1.10;0.70;;;32.50;50.40;;;;;;5029861;28;20048;-44
2023/06/15 12:15:46;;;;;;;1.02;0.63;;;32.20;49.90;;;;;;5024135;28;20035;-53
2023/06/15 12:18:12;;;;;;;1.10;0.60;;;32.00;50.20;;;;;;5019724;28;20028;-50
2023/06/15 12:20:38;;;;;;;1.67;0.85;;;32.20;51.50;;;;;;5020807;28;20120;-47
2023/06/15 12:23:05;;;;;;;1.35;0.82;;;32.50;50.30;;;;;;5027453;28;20026;-51
2023/06/15 12:25:46;;;;;;;0.80;0.57;;;32.60;51.90;;;;;;5017912;28;20030;-49
2023/06/15 12:28:22;;;;;;;1.48;0.88;;;32.50;50.80;;;;;;5019199;28;20022;-47
2023/06/15 12:30:49;;;;;;;1.25;0.88;;;32.40;49.40;;;;;;5026390;28;20021;-43
2023/06/15 12:33:29;;;;;;;0.70;0.70;;;32.20;48.90;;;;;;5022551;28;20021;-43
2023/06/15 12:35:55;;;;;;;1.42;0.70;;;32.10;48.90;;;;;;5020734;28;20045;-47
2023/06/15 12:38:23;;;;;;;1.27;0.70;;;32.10;50.10;;;;;;5026375;28;20112;-48
2023/06/15 12:40:49;;;;;;;1.25;0.70;;;31.90;49.60;;;;;;5022568;28;20026;-44
2023/06/15 12:43:19;;;;;;;1.00;0.68;;;31.80;50.70;;;;;;5024111;28;20037;-47
2023/06/15 12:45:46;;;;;;;0.75;0.60;;;31.70;51.80;;;;;;5030249;28;20446;-45
2023/06/15 12:48:12;;;;;;;0.90;0.55;;;31.60;49.70;;;;;;5026726;28;20052;-47